Weather History for Owosso, MI

Change the Weather History Date:

Wednesday, November 6, 2013

  Actual Average (KFNT) Record (KFNT)
Temperature  
Mean Temperature 50 °F 43 °F  
Max Temperature 56 °F 51 °F 73 °F (1975)
Min Temperature 42 °F 34 °F 13 °F (1951)
Degree Days  
Heating Degree Days 16 22  
Month to date heating degree days 129  
Since 1 July heating degree days 825  
Cooling Degree Days 0 0  
Month to date cooling degree days 0  
Year to date cooling degree days 531  
Moisture  
Dew Point 47 °F    
Average Humidity 82    
Maximum Humidity 97    
Minimum Humidity 55    
Precipitation  
Precipitation 0.00 in 0.10 in 1.04 in (1941)
Month to date precipitation 0.55  
Year to date precipitation 27.33  
Snow  
Snow 0.00 in 0.00 in 10.50 in (1951)
Month to date snowfall 0.1  
Since 1 July snowfall 0.5  
Since 1 September snowfall 0.5  
Snow Depth -    
Sea Level Pressure  
Sea Level Pressure 29.90 in    
Wind  
Wind Speed 12 mph (SSW)    
Max Wind Speed 25 mph    
Max Gust Speed 34 mph    
Visibility 8 miles    
Events Rain    
T = Trace of Precipitation, MM = Missing Value Source: NWS Daily Summary

Daily Weather History Graph

Daily Weather History Graph

Search for Another Location

Airport:

Trip Planner

Search our weather history database for the weather conditions in past years. The results will help you decide how hot, cold, wet, or windy it might be!

Date:

Astronomy

Nov. 06, 2013 Rise Set
Actual Time 7:17 AM EST 5:22 PM EST
Civil Twilight 6:47 AM EST 5:51 PM EST
Nautical Twilight 6:14 AM EST 6:25 PM EST
Astronomical Twilight 5:40 AM EST 6:58 PM EST
Moon 10:33 AM EST (11/6) 8:23 PM EST (11/6)
Length of Visible Light 11h 04m
Length of Day
10h 04m
Waxing Crescent, 13% of the Moon is Illuminated
Nov 6
Waxing Crescent
Nov 10
First Quarter
Nov 17
Full
Nov 25
Last Quarter
Dec 2
New

Hourly Weather History & Observations

Time (EST) Temp. Windchill Dew Point Humidity Pressure Visibility Wind Dir Wind Speed Gust Speed Precip Events Conditions
12:15 AM 53.8 °F - 42.4 °F 65% 30.11 in 10.0 mi SSE 8.1 mph 17.3 mph N/A   Mostly Cloudy
12:35 AM 53.6 °F - 42.3 °F 65% 30.10 in 10.0 mi SSE 9.2 mph 16.1 mph N/A   Scattered Clouds
12:55 AM 53.8 °F - 41.9 °F 64% 30.09 in 10.0 mi South 10.4 mph - N/A   Scattered Clouds
1:14 AM 54.1 °F - 41.4 °F 62% 30.08 in 10.0 mi SSE 11.5 mph - N/A   Scattered Clouds
1:35 AM 54.7 °F - 40.6 °F 59% 30.07 in 10.0 mi South 9.2 mph - N/A   Clear
1:55 AM 54.9 °F - 40.1 °F 58% 30.06 in 10.0 mi South 11.5 mph - N/A   Scattered Clouds
2:14 AM 55.0 °F - 39.7 °F 56% 30.05 in 10.0 mi South 11.5 mph 19.6 mph N/A   Overcast
2:35 AM 55.4 °F - 39.4 °F 55% 30.04 in 10.0 mi South 10.4 mph - N/A   Overcast
2:54 AM 55.2 °F - 39.4 °F 55% 30.03 in 10.0 mi South 8.1 mph - N/A   Overcast
3:15 AM 53.4 °F - 41.7 °F 65% 30.03 in 7.0 mi South 10.4 mph 19.6 mph N/A Rain Rain
3:35 AM 52.2 °F - 43.7 °F 73% 30.02 in 10.0 mi South 8.1 mph 17.3 mph N/A   Light Drizzle
3:54 AM 52.2 °F - 43.7 °F 73% 30.00 in 10.0 mi SSE 6.9 mph - N/A   Overcast
4:15 AM 52.2 °F - 43.7 °F 73% 29.98 in 10.0 mi SSE 6.9 mph - N/A   Overcast
4:35 AM 52.9 °F - 42.8 °F 69% 29.97 in 10.0 mi SSE 9.2 mph - N/A   Overcast
4:54 AM 53.6 °F - 42.4 °F 66% 29.97 in 10.0 mi South 8.1 mph - N/A   Overcast
5:15 AM 54.0 °F - 42.3 °F 65% 29.96 in 10.0 mi South 6.9 mph - N/A   Overcast
5:35 AM 54.5 °F - 42.1 °F 63% 29.95 in 10.0 mi South 10.4 mph - N/A   Overcast
5:55 AM 55.2 °F - 42.1 °F 61% 29.94 in 10.0 mi South 10.4 mph 17.3 mph N/A   Overcast
6:15 AM 55.6 °F - 41.9 °F 60% 29.92 in 10.0 mi South 15.0 mph 21.9 mph N/A   Overcast
6:35 AM 54.1 °F - 43.9 °F 68% 29.91 in 10.0 mi South 10.4 mph - N/A   Overcast
6:55 AM 55.4 °F - 43.0 °F 63% 29.90 in 10.0 mi SSE 13.8 mph 18.4 mph N/A   Overcast
7:15 AM 56.1 °F - 43.2 °F 62% 29.88 in 10.0 mi South 13.8 mph - N/A   Overcast
7:34 AM 55.8 °F - 44.1 °F 65% 29.88 in 10.0 mi South 12.7 mph 18.4 mph N/A Rain Light Rain
7:55 AM 55.6 °F - 45.9 °F 70% 29.87 in 10.0 mi South 11.5 mph - N/A   Drizzle
8:15 AM 55.6 °F - 47.1 °F 73% 29.88 in 10.0 mi South 11.5 mph 19.6 mph N/A Rain Light Rain
8:34 AM 55.4 °F - 50.0 °F 82% 29.88 in 7.0 mi South 15.0 mph 21.9 mph N/A Rain Light Rain
8:55 AM 55.4 °F - 52.2 °F 89% 29.88 in 7.0 mi South 12.7 mph 18.4 mph N/A Rain Rain
9:14 AM 56.3 °F - 53.4 °F 90% 29.87 in 7.0 mi South 16.1 mph 24.2 mph N/A Rain Rain
9:35 AM 55.4 °F - 53.6 °F 94% 29.87 in 5.0 mi South 15.0 mph 26.5 mph N/A Rain Rain
9:55 AM 54.9 °F - 53.8 °F 96% 29.86 in 4.0 mi South 13.8 mph 25.3 mph N/A Rain Light Rain
10:14 AM 55.0 °F - 54.1 °F 97% 29.85 in 10.0 mi South 18.4 mph 23.0 mph N/A Rain Light Rain
10:35 AM 55.4 °F - 54.5 °F 97% 29.85 in 7.0 mi South 15.0 mph 24.2 mph N/A Rain Rain
10:55 AM 55.4 °F - 54.5 °F 97% 29.85 in 5.0 mi South 13.8 mph 24.2 mph N/A Rain Light Rain
11:15 AM 55.6 °F - 54.5 °F 96% 29.84 in 4.0 mi South 15.0 mph 20.7 mph N/A Rain Light Rain
11:35 AM 55.8 °F - 54.5 °F 96% 29.83 in 5.0 mi SSW 13.8 mph 21.9 mph N/A Rain Light Rain
11:55 AM 55.9 °F - 54.7 °F 96% 29.83 in 5.0 mi SSW 15.0 mph 20.7 mph N/A Rain Rain
12:15 PM 56.3 °F - 54.9 °F 95% 29.81 in 7.0 mi South 12.7 mph 17.3 mph N/A Rain Light Rain
12:35 PM 55.9 °F - 54.5 °F 95% 29.80 in 4.0 mi SSW 13.8 mph 17.3 mph N/A Rain Rain
12:54 PM 55.9 °F - 54.7 °F 96% 29.79 in 2.5 mi SSW 11.5 mph 21.9 mph N/A   Heavy Drizzle
1:15 PM 55.8 °F - 54.5 °F 96% 29.79 in 4.0 mi South 12.7 mph 16.1 mph N/A Rain Rain
1:35 PM 55.8 °F - 54.5 °F 96% 29.78 in 7.0 mi SSW 13.8 mph 21.9 mph N/A Rain Light Rain
1:54 PM 55.8 °F - 54.1 °F 94% 29.77 in 7.0 mi SSW 16.1 mph 21.9 mph N/A Rain Light Rain
2:15 PM 55.9 °F - 54.3 °F 94% 29.75 in 10.0 mi South 11.5 mph 19.6 mph N/A Rain Light Rain
2:35 PM 56.5 °F - 54.5 °F 93% 29.75 in 10.0 mi SSW 18.4 mph 21.9 mph N/A   Overcast
2:54 PM 56.7 °F - 54.5 °F 92% 29.73 in 10.0 mi SSW 16.1 mph 23.0 mph N/A   Overcast
3:15 PM 56.8 °F - 54.1 °F 91% 29.78 in 10.0 mi SW 16.1 mph 23.0 mph N/A   Overcast
3:34 PM 56.7 °F - 54.1 °F 91% 29.78 in 10.0 mi SSW 17.3 mph 26.5 mph N/A   Overcast
3:55 PM 56.8 °F - 54.1 °F 91% 29.77 in 10.0 mi SSW 16.1 mph - N/A   Overcast
4:15 PM 56.5 °F - 54.0 °F 91% 29.76 in 4.0 mi SSW 11.5 mph 19.6 mph N/A   Drizzle
4:34 PM 56.3 °F - 54.3 °F 93% 29.77 in 5.0 mi SSW 12.7 mph 21.9 mph N/A   Overcast
4:55 PM 56.3 °F - 54.1 °F 92% 29.78 in 5.0 mi SSW 15.0 mph 20.7 mph N/A   Overcast
5:15 PM 56.3 °F - 54.0 °F 92% 29.77 in 10.0 mi SSW 12.7 mph 19.6 mph N/A   Overcast
5:34 PM 55.9 °F - 53.8 °F 92% 29.77 in 4.0 mi SW 9.2 mph 20.7 mph N/A   Drizzle
5:55 PM 54.0 °F - 52.0 °F 93% 29.81 in 3.0 mi West 25.3 mph 34.5 mph N/A Rain Heavy Rain
6:15 PM 50.4 °F - 49.1 °F 95% 29.82 in 10.0 mi WSW 19.6 mph 26.5 mph N/A   Overcast
6:34 PM 49.5 °F - 48.4 °F 96% 29.84 in 10.0 mi WSW 17.3 mph 26.5 mph N/A   Overcast
6:55 PM 49.1 °F - 48.2 °F 97% 29.86 in 5.0 mi West 16.1 mph 24.2 mph N/A   Overcast
7:14 PM 48.0 °F - 47.1 °F 97% 29.88 in 10.0 mi West 16.1 mph - N/A   Mostly Cloudy
7:35 PM 47.3 °F - 46.0 °F 95% 29.89 in 10.0 mi West 12.7 mph 24.2 mph N/A   Overcast
7:55 PM 46.6 °F - 45.5 °F 96% 29.91 in 10.0 mi West 15.0 mph 21.9 mph N/A   Overcast
8:14 PM 46.4 °F 40.7 °F 44.4 °F 93% 29.92 in 10.0 mi West 12.7 mph 18.4 mph N/A   Overcast
8:35 PM 45.9 °F 39.7 °F 43.3 °F 91% 29.94 in 10.0 mi West 13.8 mph 18.4 mph N/A   Overcast
8:54 PM 45.5 °F 38.3 °F 42.4 °F 89% 29.93 in 10.0 mi West 17.3 mph 25.3 mph N/A   Overcast
9:15 PM 44.8 °F 39.4 °F 41.0 °F 87% 29.96 in 10.0 mi WNW 10.4 mph 20.7 mph N/A   Overcast
9:35 PM 44.6 °F 39.2 °F 40.5 °F 85% 29.96 in 10.0 mi West 10.4 mph - N/A   Overcast
9:54 PM 44.6 °F 39.7 °F 39.9 °F 84% 29.98 in 10.0 mi WNW 9.2 mph 17.3 mph N/A   Overcast
10:15 PM 43.7 °F 39.1 °F 40.6 °F 89% 29.98 in 10.0 mi NW 8.1 mph - N/A   Overcast
10:35 PM 43.7 °F 38.6 °F 40.1 °F 87% 29.98 in 10.0 mi West 9.2 mph - N/A   Overcast
10:54 PM 43.3 °F 37.7 °F 39.7 °F 87% 29.99 in 10.0 mi West 10.4 mph - N/A   Overcast
11:15 PM 43.3 °F 38.6 °F 39.4 °F 86% 29.99 in 10.0 mi WNW 8.1 mph - N/A   Overcast
11:35 PM 43.2 °F 37.0 °F 39.0 °F 85% 29.98 in 10.0 mi WNW 11.5 mph 17.3 mph N/A   Overcast
11:54 PM 42.8 °F 37.5 °F 38.3 °F 84% 30.00 in 10.0 mi West 9.2 mph - N/A   Overcast